Time;durP1;ratioP1;P1;durP2;ratioP2;P2;SDS_P1;SDS_P2;PMS_P1;PMS_P2;Temp;Humidity;BMP_temperature;BMP_pressure;BME280_temperature;BME280_humidity;BME280_pressure;Samples;Min_cycle;Max_cycle;Signal;HPM_P1;HPM_P2
2022/10/20 00:01:14;;;;;;;9.07;8.80;;;8.40;99.90;;;;;;5094807;28;20242;-78
2022/10/20 00:03:42;;;;;;;9.03;8.77;;;8.30;99.90;;;;;;5094770;28;20234;-79
2022/10/20 00:06:12;;;;;;;9.07;8.80;;;8.30;99.90;;;;;;5093798;28;20245;-79
2022/10/20 00:08:40;;;;;;;8.90;8.70;;;8.20;99.90;;;;;;5093581;28;20242;-79
2022/10/20 00:11:10;;;;;;;8.90;8.70;;;8.20;99.90;;;;;;5099405;28;20284;-80
2022/10/20 00:13:39;;;;;;;8.90;8.70;;;8.10;99.90;;;;;;5102981;28;20268;-79
2022/10/20 00:16:08;;;;;;;8.83;8.63;;;8.10;99.90;;;;;;5109857;28;20230;-79
2022/10/20 00:18:39;;;;;;;9.10;8.80;;;8.10;99.90;;;;;;5106895;28;20281;-79
2022/10/20 00:21:09;;;;;;;8.80;8.60;;;8.10;99.90;;;;;;5104652;28;20263;-79
2022/10/20 00:23:37;;;;;;;8.80;8.60;;;8.00;99.90;;;;;;5112792;28;20239;-79
2022/10/20 00:26:07;;;;;;;8.80;8.60;;;8.00;99.90;;;;;;5113397;28;20257;-80
2022/10/20 00:28:35;;;;;;;8.50;8.30;;;8.00;99.90;;;;;;5113231;28;20241;-80
2022/10/20 00:31:05;;;;;;;8.43;8.23;;;7.90;99.90;;;;;;5113505;28;20293;-79
2022/10/20 00:33:35;;;;;;;8.53;8.33;;;7.90;99.90;;;;;;5111492;28;20723;-79
2022/10/20 00:36:07;;;;;;;8.80;8.60;;;7.90;99.90;;;;;;5104053;28;20229;-80
2022/10/20 00:38:36;;;;;;;8.73;8.53;;;7.80;99.90;;;;;;5101614;28;20234;-79
2022/10/20 00:41:04;;;;;;;8.50;8.30;;;7.80;99.90;;;;;;5100963;28;20241;-79
2022/10/20 00:43:49;;;;;;;8.63;8.43;;;7.80;99.90;;;;;;5100600;28;20253;-80
2022/10/20 00:46:20;;;;;;;8.70;8.50;;;7.90;99.90;;;;;;5099983;28;20225;-79
2022/10/20 00:48:52;;;;;;;8.50;8.30;;;7.90;99.90;;;;;;5099917;28;20249;-80
2022/10/20 00:51:27;;;;;;;8.80;8.60;;;7.90;99.90;;;;;;5100086;28;20312;-80
2022/10/20 00:54:02;;;;;;;8.60;8.40;;;7.90;99.90;;;;;;5099867;28;20294;-79
2022/10/20 00:56:30;;;;;;;8.60;8.40;;;7.90;99.90;;;;;;5099065;28;20225;-79
2022/10/20 00:58:58;;;;;;;8.47;8.27;;;7.90;99.90;;;;;;5102083;28;20226;-80
2022/10/20 01:01:26;;;;;;;8.67;8.47;;;7.90;99.90;;;;;;5103818;28;20241;-79
2022/10/20 01:03:54;;;;;;;8.70;8.50;;;7.90;99.90;;;;;;5101077;28;20233;-80
2022/10/20 01:06:24;;;;;;;8.73;8.53;;;7.80;99.90;;;;;;5098150;28;20233;-79
2022/10/20 01:08:53;;;;;;;8.80;8.60;;;7.80;99.90;;;;;;5098014;28;20361;-80
2022/10/20 01:11:33;;;;;;;8.80;8.60;;;7.80;99.90;;;;;;5099665;28;20256;-79
2022/10/20 01:14:26;;;;;;;9.10;8.80;;;7.80;99.90;;;;;;5099581;28;20290;-79
2022/10/20 01:17:03;;;;;;;8.60;8.40;;;7.70;99.90;;;;;;5098664;28;20229;-79
2022/10/20 01:20:28;;;;;;;9.17;8.87;;;7.70;99.90;;;;;;5098643;28;20233;-79
2022/10/20 01:23:49;;;;;;;9.20;8.90;;;7.60;99.90;;;;;;5101074;28;20222;-79
2022/10/20 01:26:48;;;;;;;8.60;8.40;;;7.60;99.90;;;;;;5076685;28;20279;-79
2022/10/20 01:29:24;;;;;;;8.83;8.63;;;7.60;99.90;;;;;;5098523;28;20386;-80
2022/10/20 01:32:06;;;;;;;8.70;8.50;;;7.50;99.90;;;;;;5098838;28;20228;-80
2022/10/20 01:34:44;;;;;;;8.70;8.50;;;7.50;99.90;;;;;;5097488;28;20287;-79
2022/10/20 01:37:20;;;;;;;8.93;8.70;;;7.50;99.90;;;;;;5098365;28;20236;-80
2022/10/20 01:39:54;;;;;;;8.80;8.60;;;7.50;99.90;;;;;;5098391;28;20235;-79
2022/10/20 01:42:26;;;;;;;9.10;8.80;;;7.50;99.90;;;;;;5098136;28;20213;-80
2022/10/20 01:45:01;;;;;;;9.30;9.00;;;7.50;99.90;;;;;;5097383;28;20236;-80
2022/10/20 01:47:30;;;;;;;9.03;8.73;;;7.40;99.90;;;;;;5098952;28;20221;-79
2022/10/20 01:49:58;;;;;;;9.23;8.93;;;7.40;99.90;;;;;;5098524;28;20639;-79
2022/10/20 01:52:29;;;;;;;9.10;8.80;;;7.30;99.90;;;;;;5099547;28;20275;-79
2022/10/20 01:54:56;;;;;;;8.93;8.73;;;7.30;99.90;;;;;;5101481;28;20229;-79
2022/10/20 01:57:37;;;;;;;8.80;8.60;;;7.30;99.90;;;;;;5100119;28;20277;-80
2022/10/20 02:00:11;;;;;;;8.90;8.70;;;7.30;99.90;;;;;;5097706;28;20232;-79
2022/10/20 02:02:59;;;;;;;8.93;8.67;;;7.30;99.90;;;;;;5098321;28;20261;-79
2022/10/20 02:05:46;;;;;;;9.10;8.80;;;7.30;99.90;;;;;;5097303;28;20221;-80
2022/10/20 02:08:20;;;;;;;9.20;8.90;;;7.30;99.90;;;;;;5106406;28;20232;-79
2022/10/20 02:10:50;;;;;;;9.10;8.80;;;7.30;99.90;;;;;;5114621;28;20272;-80
2022/10/20 02:13:20;;;;;;;9.07;8.77;;;7.30;99.90;;;;;;5101823;28;20226;-79
2022/10/20 02:15:53;;;;;;;8.80;8.60;;;7.30;99.90;;;;;;5092566;28;20321;-80
2022/10/20 02:18:27;;;;;;;8.77;8.57;;;7.20;99.90;;;;;;5097311;28;20236;-80
2022/10/20 02:20:57;;;;;;;8.87;8.67;;;7.20;99.90;;;;;;5098119;28;20289;-80
2022/10/20 02:23:25;;;;;;;8.80;8.60;;;7.20;99.90;;;;;;5098426;28;20217;-79
2022/10/20 02:25:55;;;;;;;8.70;8.50;;;7.20;99.90;;;;;;5097483;28;21101;-79
2022/10/20 02:28:23;;;;;;;9.13;8.83;;;7.20;99.90;;;;;;5097176;28;20233;-80
2022/10/20 02:30:53;;;;;;;8.87;8.67;;;7.20;99.90;;;;;;5098145;28;20225;-80
2022/10/20 02:33:24;;;;;;;9.23;8.93;;;7.20;99.90;;;;;;5098424;28;20253;-80
2022/10/20 02:35:58;;;;;;;9.30;9.00;;;7.10;99.90;;;;;;5098538;28;20255;-79
2022/10/20 02:38:26;;;;;;;8.83;8.63;;;7.10;99.90;;;;;;5099089;28;20237;-80
2022/10/20 02:40:54;;;;;;;9.03;8.73;;;7.10;99.90;;;;;;5097499;28;20301;-80
2022/10/20 02:43:22;;;;;;;8.80;8.60;;;7.10;99.90;;;;;;5097504;28;20752;-80
2022/10/20 02:45:51;;;;;;;8.83;8.63;;;7.00;99.90;;;;;;5098909;28;20255;-80
2022/10/20 02:48:18;;;;;;;8.80;8.60;;;7.10;99.90;;;;;;5100661;28;20243;-79
2022/10/20 02:50:46;;;;;;;8.60;8.40;;;7.10;99.90;;;;;;5101124;28;20321;-80
2022/10/20 02:53:13;;;;;;;8.80;8.60;;;7.10;99.90;;;;;;5107225;28;20206;-79
2022/10/20 02:55:42;;;;;;;8.73;8.53;;;7.10;99.90;;;;;;5107938;28;20229;-80
2022/10/20 02:58:11;;;;;;;8.63;8.43;;;7.10;99.90;;;;;;5103198;28;20327;-80
2022/10/20 03:00:38;;;;;;;8.73;8.53;;;7.00;99.90;;;;;;5102536;28;20237;-80
2022/10/20 03:03:08;;;;;;;8.50;8.30;;;7.00;99.90;;;;;;5104132;28;20230;-80
2022/10/20 03:05:43;;;;;;;8.60;8.40;;;7.00;99.90;;;;;;5105205;28;20221;-80
2022/10/20 03:08:11;;;;;;;8.80;8.60;;;7.00;99.90;;;;;;5102815;28;20328;-80
2022/10/20 03:10:40;;;;;;;8.50;8.30;;;6.90;99.90;;;;;;5102858;28;20245;-80
2022/10/20 03:13:08;;;;;;;8.77;8.57;;;6.90;99.90;;;;;;5102619;28;20288;-80
2022/10/20 03:15:36;;;;;;;8.80;8.60;;;6.90;99.90;;;;;;5101365;28;20229;-80
2022/10/20 03:18:06;;;;;;;8.80;8.60;;;6.90;99.90;;;;;;5101883;28;20245;-81
2022/10/20 03:20:33;;;;;;;8.67;8.47;;;6.90;99.90;;;;;;5101490;28;20214;-80
2022/10/20 03:23:01;;;;;;;8.90;8.70;;;6.80;99.90;;;;;;5101892;28;20234;-80
2022/10/20 03:25:29;;;;;;;8.77;8.57;;;6.80;99.90;;;;;;5101235;28;20275;-81
2022/10/20 03:27:59;;;;;;;8.90;8.70;;;6.80;99.90;;;;;;5101102;28;20237;-80
2022/10/20 03:30:27;;;;;;;8.70;8.50;;;6.80;99.90;;;;;;5101100;28;20226;-80
2022/10/20 03:32:56;;;;;;;8.70;8.50;;;6.90;99.90;;;;;;5100785;28;20230;-80
2022/10/20 03:35:26;;;;;;;8.53;8.33;;;6.90;99.90;;;;;;5101936;28;20323;-80
2022/10/20 03:37:53;;;;;;;8.63;8.43;;;6.90;99.90;;;;;;5102304;28;20239;-79
2022/10/20 03:40:21;;;;;;;8.60;8.40;;;6.90;99.90;;;;;;5101219;28;20226;-80
2022/10/20 03:42:48;;;;;;;8.60;8.40;;;6.90;99.90;;;;;;5101078;28;20236;-80
2022/10/20 03:45:16;;;;;;;8.60;8.40;;;6.90;99.90;;;;;;5099285;28;20291;-80
2022/10/20 03:47:44;;;;;;;8.47;8.27;;;6.90;99.90;;;;;;5101117;28;20697;-80
2022/10/20 03:50:11;;;;;;;8.30;8.10;;;7.00;99.90;;;;;;5101851;28;20235;-80
2022/10/20 03:52:41;;;;;;;8.70;8.50;;;7.00;99.90;;;;;;5102296;28;20229;-80
2022/10/20 03:55:09;;;;;;;8.50;8.30;;;7.00;99.90;;;;;;5101646;28;20245;-80
2022/10/20 03:57:37;;;;;;;8.57;8.37;;;7.00;99.90;;;;;;5100641;28;20244;-79
2022/10/20 04:00:05;;;;;;;8.70;8.50;;;7.10;99.90;;;;;;5101712;28;20309;-80
2022/10/20 04:02:35;;;;;;;8.43;8.23;;;7.00;99.90;;;;;;5102153;28;20306;-80
2022/10/20 04:05:04;;;;;;;8.23;8.03;;;7.00;99.90;;;;;;5101722;28;20213;-80
2022/10/20 04:07:32;;;;;;;8.60;8.40;;;7.00;99.90;;;;;;5101073;28;20275;-80
2022/10/20 04:10:02;;;;;;;8.63;8.43;;;6.90;99.90;;;;;;5100962;28;20234;-81
2022/10/20 04:12:30;;;;;;;8.60;8.40;;;6.90;99.90;;;;;;5101824;28;20236;-80
2022/10/20 04:14:58;;;;;;;8.60;8.40;;;6.90;99.90;;;;;;5101492;28;20320;-81
2022/10/20 04:17:26;;;;;;;8.77;8.57;;;6.90;99.90;;;;;;5103195;28;20233;-80
2022/10/20 04:19:54;;;;;;;8.60;8.40;;;6.90;99.90;;;;;;5106876;28;20290;-79
2022/10/20 04:22:21;;;;;;;8.60;8.40;;;6.90;99.90;;;;;;5118408;28;20355;-79
2022/10/20 04:24:49;;;;;;;8.70;8.50;;;6.90;99.90;;;;;;5117483;28;20229;-80
2022/10/20 04:27:18;;;;;;;8.53;8.33;;;7.00;99.90;;;;;;5110528;28;20268;-80
2022/10/20 04:29:47;;;;;;;9.00;8.70;;;6.90;99.90;;;;;;5103729;28;20233;-80
2022/10/20 04:32:15;;;;;;;8.83;8.63;;;6.90;99.90;;;;;;5103106;28;20229;-79
2022/10/20 04:34:43;;;;;;;8.60;8.40;;;6.90;99.90;;;;;;5102045;28;20316;-78
2022/10/20 04:37:11;;;;;;;8.50;8.30;;;6.90;99.90;;;;;;5101517;28;20230;-79
2022/10/20 04:39:38;;;;;;;8.60;8.40;;;6.90;99.90;;;;;;5101188;28;20320;-80
2022/10/20 04:42:06;;;;;;;8.50;8.30;;;6.90;99.90;;;;;;5101876;28;20264;-80
2022/10/20 04:44:35;;;;;;;8.40;8.20;;;6.90;99.90;;;;;;5100942;28;20236;-80
2022/10/20 04:47:03;;;;;;;8.47;8.27;;;6.90;99.90;;;;;;5104424;28;20224;-80
2022/10/20 04:49:33;;;;;;;8.40;8.20;;;6.80;99.90;;;;;;5110047;28;20265;-80
2022/10/20 04:52:00;;;;;;;8.40;8.20;;;6.80;99.90;;;;;;5101936;28;20225;-80
2022/10/20 04:54:28;;;;;;;8.20;8.00;;;6.80;99.90;;;;;;5101131;28;20367;-80
2022/10/20 04:56:56;;;;;;;8.30;8.10;;;6.80;99.90;;;;;;5101197;28;20240;-80
2022/10/20 04:59:24;;;;;;;8.57;8.37;;;6.70;99.90;;;;;;5099287;22;20234;-81
2022/10/20 05:01:56;;;;;;;8.73;8.53;;;6.70;99.90;;;;;;5077546;28;20213;-79
2022/10/20 05:04:24;;;;;;;8.60;8.40;;;6.70;99.90;;;;;;5052491;28;20226;-80
2022/10/20 05:06:53;;;;;;;8.50;8.30;;;6.70;99.90;;;;;;5069209;28;20258;-80
2022/10/20 05:09:22;;;;;;;8.80;8.60;;;6.60;99.90;;;;;;5060694;28;20273;-81
2022/10/20 05:11:55;;;;;;;8.40;8.20;;;6.60;99.90;;;;;;5060463;28;20250;-81
2022/10/20 05:14:23;;;;;;;8.47;8.27;;;6.60;99.90;;;;;;5060286;28;20317;-81
2022/10/20 05:16:55;;;;;;;8.17;7.97;;;6.60;99.90;;;;;;5060976;28;20254;-81
2022/10/20 05:19:23;;;;;;;8.20;8.00;;;6.60;99.90;;;;;;5064342;28;20254;-80
2022/10/20 05:21:52;;;;;;;8.30;8.10;;;6.60;99.90;;;;;;5072723;28;20218;-80
2022/10/20 05:24:22;;;;;;;8.50;8.30;;;6.60;99.90;;;;;;5060771;28;20290;-80
2022/10/20 05:26:50;;;;;;;8.80;8.60;;;6.70;99.90;;;;;;5065871;28;20223;-80
2022/10/20 05:29:20;;;;;;;9.10;8.80;;;6.70;99.90;;;;;;5070718;28;20254;-81
2022/10/20 05:31:49;;;;;;;8.97;8.77;;;6.70;99.90;;;;;;5068105;28;20226;-79
2022/10/20 05:34:30;;;;;;;9.10;8.80;;;6.70;99.90;;;;;;5062011;28;20258;-81
2022/10/20 05:36:57;;;;;;;9.20;8.90;;;6.70;99.90;;;;;;5062016;28;20907;-81
2022/10/20 05:39:26;;;;;;;8.90;8.70;;;6.70;99.90;;;;;;5060816;28;20270;-81
2022/10/20 05:41:56;;;;;;;9.10;8.80;;;6.80;99.90;;;;;;5067700;28;20238;-81
2022/10/20 05:44:25;;;;;;;9.10;8.80;;;6.80;99.90;;;;;;5060564;28;20238;-81
2022/10/20 05:46:55;;;;;;;9.03;8.80;;;6.80;99.90;;;;;;5061031;28;20226;-80
2022/10/20 05:49:35;;;;;;;8.80;8.60;;;6.80;99.90;;;;;;5060725;28;20226;-81
2022/10/20 05:52:03;;;;;;;8.77;8.57;;;6.80;99.90;;;;;;5060778;28;20314;-79
2022/10/20 05:54:32;;;;;;;8.77;8.57;;;6.80;99.90;;;;;;5059635;28;20227;-79
2022/10/20 05:57:02;;;;;;;8.90;8.70;;;6.70;99.90;;;;;;5060574;28;20293;-79
2022/10/20 05:59:31;;;;;;;9.00;8.80;;;6.80;99.90;;;;;;5061781;28;20430;-81
2022/10/20 06:02:01;;;;;;;9.07;8.80;;;6.80;99.90;;;;;;5064886;28;20298;-81
2022/10/20 06:04:32;;;;;;;8.60;8.40;;;6.90;99.90;;;;;;5065360;28;20305;-81
2022/10/20 06:09:47;;;;;;;8.90;8.70;;;6.90;99.90;;;;;;5058564;28;20288;-80
2022/10/20 06:12:15;;;;;;;8.90;8.70;;;6.90;99.90;;;;;;5043162;28;20215;-83
2022/10/20 06:14:45;;;;;;;8.80;8.60;;;6.90;99.90;;;;;;5041095;28;20267;-81
2022/10/20 06:17:14;;;;;;;9.10;8.80;;;6.90;99.90;;;;;;5041556;28;20322;-80
2022/10/20 06:19:53;;;;;;;9.10;8.80;;;7.00;99.90;;;;;;5040385;28;20235;-81
2022/10/20 06:22:22;;;;;;;9.20;8.90;;;7.00;99.90;;;;;;5043480;28;20223;-81
2022/10/20 06:24:51;;;;;;;9.57;9.27;;;7.00;99.90;;;;;;5080778;28;20245;-80
2022/10/20 06:27:21;;;;;;;9.30;9.00;;;7.00;99.90;;;;;;5074498;28;20234;-82
2022/10/20 06:29:51;;;;;;;9.13;8.83;;;7.00;99.90;;;;;;5068002;28;20322;-81
2022/10/20 06:32:20;;;;;;;9.30;9.00;;;7.10;99.90;;;;;;5061410;28;20221;-81
2022/10/20 06:34:59;;;;;;;9.27;8.97;;;7.20;99.90;;;;;;5060100;28;20231;-81
2022/10/20 06:37:27;;;;;;;9.70;9.40;;;7.20;99.90;;;;;;5060906;28;20238;-82
2022/10/20 06:39:57;;;;;;;9.40;9.10;;;7.20;99.90;;;;;;5060139;28;20317;-81
2022/10/20 06:42:27;;;;;;;9.40;9.10;;;7.30;99.90;;;;;;5059155;28;20241;-82
2022/10/20 06:44:57;;;;;;;9.47;9.17;;;7.30;99.90;;;;;;5059282;28;20258;-80
2022/10/20 06:47:25;;;;;;;9.40;9.10;;;7.40;99.90;;;;;;5059564;28;20606;-81
2022/10/20 06:50:03;;;;;;;9.73;9.43;;;7.50;99.90;;;;;;5066942;28;20325;-81
2022/10/20 06:52:33;;;;;;;9.60;9.30;;;7.60;99.90;;;;;;5067572;28;20232;-81
2022/10/20 06:55:02;;;;;;;9.60;9.30;;;7.70;99.90;;;;;;5062648;28;20227;-80
2022/10/20 06:57:31;;;;;;;9.57;9.27;;;7.80;99.90;;;;;;5062045;28;20266;-81
2022/10/20 07:00:01;;;;;;;9.60;9.30;;;7.90;99.90;;;;;;5060461;28;20325;-82
2022/10/20 07:02:30;;;;;;;9.53;9.23;;;7.90;99.90;;;;;;5059782;28;20239;-82
2022/10/20 07:05:10;;;;;;;9.37;9.07;;;8.10;99.90;;;;;;5056144;28;20239;-81
2022/10/20 07:07:39;;;;;;;8.80;8.60;;;8.10;99.90;;;;;;5071074;28;20242;-81
2022/10/20 07:10:08;;;;;;;9.10;8.80;;;8.10;99.90;;;;;;5064240;28;20297;-81
2022/10/20 07:12:40;;;;;;;9.30;9.00;;;8.20;99.90;;;;;;5061996;28;20254;-82
2022/10/20 07:15:09;;;;;;;9.40;9.10;;;8.30;99.90;;;;;;5060436;28;20313;-81
2022/10/20 07:17:38;;;;;;;9.13;8.83;;;8.40;99.90;;;;;;5079367;28;20308;-80
2022/10/20 07:20:17;;;;;;;9.13;8.83;;;8.50;99.90;;;;;;5079234;28;20288;-81
2022/10/20 07:22:45;;;;;;;9.50;9.20;;;8.50;99.90;;;;;;5079440;28;20270;-81
2022/10/20 07:25:15;;;;;;;9.50;9.20;;;8.60;99.90;;;;;;5078719;28;20234;-81
2022/10/20 07:27:44;;;;;;;9.37;9.07;;;8.70;99.90;;;;;;5079595;28;20238;-82
2022/10/20 07:30:14;;;;;;;9.30;9.00;;;8.80;99.90;;;;;;5079668;28;20317;-81
2022/10/20 07:32:43;;;;;;;9.67;9.37;;;8.90;99.90;;;;;;5081401;28;20237;-81
2022/10/20 07:35:22;;;;;;;9.50;9.20;;;8.90;99.90;;;;;;5075513;28;20235;-80
2022/10/20 07:37:51;;;;;;;9.47;9.17;;;8.90;99.90;;;;;;5081057;28;20329;-82
2022/10/20 07:40:21;;;;;;;9.23;8.93;;;9.00;99.90;;;;;;5072212;28;20219;-81
2022/10/20 07:42:50;;;;;;;9.37;9.07;;;9.10;99.90;;;;;;5062431;28;20281;-81
2022/10/20 07:45:20;;;;;;;9.90;9.60;;;9.20;99.90;;;;;;5066570;28;20234;-81
2022/10/20 07:47:49;;;;;;;9.60;9.30;;;9.40;99.90;;;;;;5070948;28;20235;-80
2022/10/20 07:50:20;;;;;;;9.70;9.40;;;9.50;99.90;;;;;;5061855;28;20235;-81
2022/10/20 07:52:59;;;;;;;9.60;9.30;;;9.60;99.90;;;;;;5068341;28;20227;-82
2022/10/20 07:55:26;;;;;;;9.80;9.50;;;9.80;99.90;;;;;;5054787;28;20234;-82
2022/10/20 07:57:56;;;;;;;9.87;9.57;;;9.80;99.90;;;;;;5056700;28;20253;-82
2022/10/20 08:00:24;;;;;;;9.40;9.10;;;10.00;99.90;;;;;;5061115;28;20246;-82
2022/10/20 08:02:54;;;;;;;9.87;9.57;;;10.10;99.90;;;;;;5074349;28;20257;-81
2022/10/20 08:05:34;;;;;;;9.60;9.30;;;10.20;99.90;;;;;;5079262;28;20261;-83
2022/10/20 08:08:02;;;;;;;9.80;9.50;;;10.30;99.90;;;;;;5059664;28;20227;-82
2022/10/20 08:10:32;;;;;;;9.63;9.33;;;10.30;99.90;;;;;;5062418;28;20259;-82
2022/10/20 08:13:01;;;;;;;9.50;9.20;;;10.40;99.90;;;;;;5061448;28;20282;-85
2022/10/20 08:15:31;;;;;;;9.90;9.60;;;10.40;99.90;;;;;;5061355;28;20234;-83
2022/10/20 08:17:59;;;;;;;9.83;9.53;;;10.50;99.90;;;;;;5063258;28;20301;-82
2022/10/20 08:20:40;;;;;;;9.60;9.30;;;10.70;99.90;;;;;;5068439;28;20266;-83
2022/10/20 08:23:07;;;;;;;10.07;9.77;;;10.80;99.90;;;;;;5061876;28;20254;-81
2022/10/20 08:25:36;;;;;;;10.10;9.80;;;10.90;99.90;;;;;;5061163;28;20236;-81
2022/10/20 08:28:05;;;;;;;9.87;9.57;;;11.00;99.90;;;;;;5060071;28;20231;-81
2022/10/20 08:30:35;;;;;;;9.93;9.63;;;11.20;99.90;;;;;;5061017;28;21229;-81
2022/10/20 08:33:04;;;;;;;10.00;9.70;;;11.30;99.90;;;;;;5061619;28;20313;-81
2022/10/20 08:35:44;;;;;;;10.30;10.00;;;11.40;99.90;;;;;;5070348;28;20230;-80
2022/10/20 08:38:12;;;;;;;9.90;9.60;;;11.60;99.90;;;;;;5082355;28;20242;-81
2022/10/20 08:40:42;;;;;;;9.93;9.63;;;11.70;99.90;;;;;;5072478;28;20295;-82
2022/10/20 08:43:24;;;;;;;9.90;9.60;;;11.90;99.90;;;;;;5072200;28;20254;-82
2022/10/20 08:45:52;;;;;;;10.10;9.80;;;12.10;99.90;;;;;;5076871;28;20678;-81
2022/10/20 08:48:30;;;;;;;10.20;9.90;;;12.20;99.90;;;;;;5070313;28;20273;-83
2022/10/20 08:51:09;;;;;;;10.17;9.87;;;12.10;99.90;;;;;;5061459;28;20235;-83
2022/10/20 08:53:44;;;;;;;10.17;9.87;;;12.30;99.90;;;;;;5055433;28;20237;-83
2022/10/20 08:56:14;;;;;;;9.40;9.10;;;12.30;99.90;;;;;;5041944;28;20281;-85
2022/10/20 08:58:45;;;;;;;9.77;9.47;;;12.50;99.90;;;;;;5041960;28;20256;-85
2022/10/20 09:01:21;;;;;;;9.90;9.60;;;12.70;99.90;;;;;;5042228;28;20231;-82
2022/10/20 09:04:02;;;;;;;9.93;9.63;;;12.60;99.90;;;;;;5041588;28;20227;-82
2022/10/20 09:06:39;;;;;;;9.57;9.27;;;12.60;99.90;;;;;;5060035;28;20230;-82
2022/10/20 09:09:07;;;;;;;9.70;9.40;;;12.50;99.90;;;;;;5066982;28;20238;-82
2022/10/20 09:11:40;;;;;;;9.57;9.27;;;12.50;99.90;;;;;;5074800;28;20230;-79
2022/10/20 09:14:18;;;;;;;9.90;9.60;;;12.50;99.90;;;;;;5073198;28;20239;-82
2022/10/20 09:16:46;;;;;;;9.70;9.40;;;12.50;99.90;;;;;;5062650;28;20329;-83
2022/10/20 09:19:19;;;;;;;9.80;9.50;;;12.50;99.90;;;;;;5062161;28;20302;-82
2022/10/20 09:21:54;;;;;;;9.47;9.17;;;12.60;99.90;;;;;;5061848;28;20218;-81
2022/10/20 09:24:25;;;;;;;9.67;9.37;;;12.80;99.90;;;;;;5062342;28;20222;-81
2022/10/20 09:26:53;;;;;;;9.63;9.33;;;13.00;99.90;;;;;;5062131;28;20231;-81
2022/10/20 09:29:23;;;;;;;9.90;9.60;;;13.20;99.90;;;;;;5059400;28;20239;-81
2022/10/20 09:31:54;;;;;;;9.80;9.50;;;13.30;99.90;;;;;;5063405;28;20298;-79
2022/10/20 09:34:30;;;;;;;9.90;9.60;;;13.50;99.90;;;;;;5062649;28;20281;-81
2022/10/20 09:37:10;;;;;;;9.83;9.53;;;13.60;99.90;;;;;;5063001;28;20241;-82
2022/10/20 09:39:49;;;;;;;9.90;9.60;;;13.70;99.90;;;;;;5063970;28;20257;-82
2022/10/20 09:42:24;;;;;;;10.23;9.93;;;13.60;99.90;;;;;;5061487;28;20266;-80
2022/10/20 09:45:05;;;;;;;10.20;9.90;;;13.60;99.90;;;;;;5060306;28;20223;-82
2022/10/20 09:47:35;;;;;;;10.27;9.97;;;13.70;99.90;;;;;;5061786;28;20245;-83
2022/10/20 09:50:11;;;;;;;9.87;9.57;;;13.80;99.90;;;;;;5062040;28;20239;-82
2022/10/20 09:52:48;;;;;;;10.13;9.83;;;14.00;99.90;;;;;;5060474;28;20230;-82
2022/10/20 09:55:29;;;;;;;10.30;10.00;;;14.10;99.90;;;;;;5060040;28;20281;-82
2022/10/20 09:58:05;;;;;;;10.23;9.93;;;14.40;99.90;;;;;;5059241;28;20239;-83
2022/10/20 10:00:35;;;;;;;10.30;10.00;;;14.50;99.90;;;;;;5059948;28;20242;-84
2022/10/20 10:03:21;;;;;;;10.60;10.30;;;14.50;99.90;;;;;;5060529;28;20249;-82
2022/10/20 10:05:54;;;;;;;10.40;10.10;;;14.70;99.90;;;;;;5059903;28;20282;-83
2022/10/20 10:08:30;;;;;;;10.50;10.20;;;14.90;99.90;;;;;;5060523;28;20308;-81
2022/10/20 10:13:48;;;;;;;10.00;9.70;;;15.20;99.90;;;;;;5061192;28;20226;-83
2022/10/20 10:16:24;;;;;;;9.90;9.60;;;15.30;99.90;;;;;;5059205;28;20318;-83
2022/10/20 10:19:02;;;;;;;10.10;9.80;;;15.20;99.90;;;;;;5059730;28;20250;-83
2022/10/20 10:21:43;;;;;;;10.40;10.10;;;15.20;99.90;;;;;;5058938;28;20334;-81
2022/10/20 10:24:38;;;;;;;10.40;10.10;;;15.40;99.90;;;;;;5059563;28;20348;-81
2022/10/20 10:27:25;;;;;;;9.90;9.60;;;15.50;99.90;;;;;;5059348;28;20250;-83
2022/10/20 10:29:53;;;;;;;10.00;9.70;;;15.60;99.90;;;;;;5059577;28;20235;-83
2022/10/20 10:32:25;;;;;;;10.18;9.88;;;15.70;99.90;;;;;;5059798;28;20258;-83
2022/10/20 10:35:26;;;;;;;10.20;9.90;;;15.70;99.90;;;;;;5060038;28;20238;-82
2022/10/20 10:37:56;;;;;;;9.75;9.45;;;15.60;99.90;;;;;;5059067;28;20545;-83
2022/10/20 10:40:36;;;;;;;9.77;9.47;;;15.60;99.90;;;;;;5060359;28;20277;-82
2022/10/20 10:43:28;;;;;;;9.80;9.50;;;15.50;99.90;;;;;;5059928;28;20289;-82
2022/10/20 10:46:00;;;;;;;9.57;9.27;;;15.40;99.90;;;;;;5059572;28;20235;-82
2022/10/20 10:49:22;;;;;;;9.82;9.52;;;15.50;99.90;;;;;;5067908;28;20218;-82
2022/10/20 10:52:01;;;;;;;9.98;9.68;;;15.80;99.90;;;;;;5061475;28;20230;-82
2022/10/20 10:54:56;;;;;;;10.52;10.23;;;16.20;99.90;;;;;;5062453;28;20237;-83
2022/10/20 10:57:34;;;;;;;10.60;10.30;;;16.80;99.90;;;;;;5061209;28;20262;-82
2022/10/20 11:00:11;;;;;;;10.30;10.00;;;16.90;99.90;;;;;;5092625;22;20291;-81
2022/10/20 11:03:01;;;;;;;9.90;9.60;;;17.00;99.90;;;;;;5057153;28;20230;-81
2022/10/20 11:05:55;;;;;;;10.27;9.98;;;17.20;99.90;;;;;;5053700;28;20235;-81
2022/10/20 11:20:30;;;;;;;10.98;10.68;;;17.50;99.90;;;;;;5152748;27;20541;-89
2022/10/20 11:23:28;;;;;;;11.10;10.80;;;17.50;99.90;;;;;;5115954;28;20224;-89
2022/10/20 11:26:03;;;;;;;11.20;10.80;;;17.70;99.90;;;;;;5159038;22;20220;-82
2022/10/20 11:28:43;;;;;;;11.15;10.85;;;17.60;99.90;;;;;;5130786;27;20269;-84
2022/10/20 11:31:22;;;;;;;10.77;10.48;;;17.50;99.90;;;;;;5124251;27;20239;-82
2022/10/20 11:33:59;;;;;;;10.98;10.68;;;17.60;99.90;;;;;;5126108;27;20236;-80
2022/10/20 11:36:36;;;;;;;11.02;10.73;;;17.60;99.90;;;;;;5097645;28;20265;-82
2022/10/20 11:39:05;;;;;;;10.82;10.52;;;17.40;99.90;;;;;;5097616;28;20225;-82
2022/10/20 11:41:40;;;;;;;10.90;10.60;;;17.20;99.90;;;;;;5095222;28;20237;-79
2022/10/20 11:44:13;;;;;;;11.00;10.70;;;17.20;99.90;;;;;;5095239;28;20318;-80
2022/10/20 11:46:48;;;;;;;10.80;10.50;;;17.00;99.90;;;;;;5095259;28;20225;-82
2022/10/20 11:49:15;;;;;;;10.10;9.80;;;16.80;99.90;;;;;;5096322;28;20230;-80
2022/10/20 11:52:38;;;;;;;9.95;9.65;;;16.80;99.90;;;;;;5096723;28;20512;-80
2022/10/20 11:55:34;;;;;;;10.30;10.00;;;16.90;99.90;;;;;;5096598;28;20297;-81
2022/10/20 11:58:22;;;;;;;10.50;10.20;;;17.30;99.90;;;;;;5094039;28;20303;-80
2022/10/20 12:01:07;;;;;;;10.65;10.35;;;17.60;99.90;;;;;;5097462;28;20230;-81
2022/10/20 12:04:07;;;;;;;10.38;10.07;;;17.80;99.90;;;;;;5096724;28;20316;-81
2022/10/20 12:07:02;;;;;;;10.50;10.20;;;17.80;99.90;;;;;;5097971;28;20233;-80
2022/10/20 12:10:35;;;;;;;10.32;10.02;;;17.60;99.90;;;;;;5106340;27;20300;-81
2022/10/20 12:13:23;;;;;;;10.20;9.90;;;17.30;99.90;;;;;;5028570;28;20281;-80
2022/10/20 12:15:52;;;;;;;10.27;9.98;;;17.10;99.90;;;;;;5067862;28;20230;-82
2022/10/20 12:18:26;;;;;;;10.55;10.25;;;16.90;99.90;;;;;;5087504;28;20230;-80
2022/10/20 12:21:00;;;;;;;10.52;10.23;;;16.70;99.90;;;;;;5083715;28;20226;-81
2022/10/20 12:24:23;;;;;;;10.30;10.00;;;16.50;99.90;;;;;;5097751;28;20218;-80
2022/10/20 12:27:19;;;;;;;10.40;10.10;;;16.40;99.90;;;;;;5089920;28;20230;-80
2022/10/20 12:30:42;;;;;;;10.32;10.02;;;16.30;99.90;;;;;;5081680;28;20289;-80
2022/10/20 12:33:17;;;;;;;10.25;9.95;;;16.20;99.90;;;;;;5098118;28;20252;-80
2022/10/20 12:36:01;;;;;;;9.60;9.30;;;16.20;99.90;;;;;;5090796;28;20230;-79
2022/10/20 12:38:31;;;;;;;9.63;9.32;;;16.20;99.90;;;;;;5093626;28;20320;-80
2022/10/20 12:41:03;;;;;;;9.88;9.57;;;16.20;99.90;;;;;;5100160;28;20222;-80
2022/10/20 12:43:51;;;;;;;9.65;9.35;;;16.20;99.90;;;;;;5101644;28;20249;-80
2022/10/20 12:46:30;;;;;;;9.63;9.32;;;16.20;99.90;;;;;;5101758;28;20202;-80
2022/10/20 12:49:03;;;;;;;9.57;9.27;;;16.20;99.90;;;;;;5103080;28;20238;-80
2022/10/20 12:51:39;;;;;;;9.30;9.00;;;16.20;99.90;;;;;;5103313;28;20210;-81
2022/10/20 12:54:21;;;;;;;9.85;9.55;;;16.40;99.90;;;;;;5103063;28;20231;-78
2022/10/20 12:56:50;;;;;;;10.35;10.05;;;16.60;99.90;;;;;;5102661;28;20210;-79
2022/10/20 12:59:56;;;;;;;10.63;10.32;;;16.90;99.90;;;;;;5102542;28;20214;-79
2022/10/20 13:02:48;;;;;;;10.60;10.30;;;17.20;99.90;;;;;;5108733;28;20225;-80
2022/10/20 13:05:49;;;;;;;10.73;10.43;;;17.40;99.90;;;;;;5120003;28;20216;-80
2022/10/20 13:08:30;;;;;;;10.70;10.40;;;17.30;99.90;;;;;;5122592;28;20256;-83
2022/10/20 13:11:31;;;;;;;10.50;10.20;;;17.30;99.90;;;;;;5122789;28;20312;-81
2022/10/20 13:14:06;;;;;;;10.35;10.05;;;17.20;99.90;;;;;;5112185;28;20223;-80
2022/10/20 13:16:35;;;;;;;10.50;10.20;;;17.20;99.90;;;;;;5122056;28;20220;-79
2022/10/20 13:19:10;;;;;;;10.20;9.90;;;17.30;99.90;;;;;;5118921;28;20221;-81
2022/10/20 13:21:38;;;;;;;9.93;9.63;;;17.30;99.90;;;;;;5113323;28;20239;-80
2022/10/20 13:24:16;;;;;;;10.02;9.73;;;17.30;99.90;;;;;;5108358;28;20297;-81
2022/10/20 13:26:51;;;;;;;10.20;9.90;;;17.40;99.90;;;;;;5102417;28;20289;-79
2022/10/20 13:29:27;;;;;;;10.00;9.70;;;17.30;99.90;;;;;;5103522;28;20229;-80
2022/10/20 13:32:11;;;;;;;10.15;9.85;;;17.30;99.90;;;;;;5100767;28;20244;-80
2022/10/20 13:34:47;;;;;;;9.88;9.57;;;17.20;99.90;;;;;;5102769;28;20229;-81
2022/10/20 13:37:35;;;;;;;9.88;9.57;;;17.10;99.90;;;;;;5103423;28;20277;-80
2022/10/20 13:40:16;;;;;;;9.95;9.65;;;17.00;99.90;;;;;;5103531;28;20221;-80
2022/10/20 13:42:58;;;;;;;9.95;9.65;;;16.90;99.90;;;;;;5103456;28;20256;-81
2022/10/20 13:45:41;;;;;;;9.80;9.50;;;16.80;99.90;;;;;;5098165;28;20313;-82